Time;durP1;ratioP1;P1;durP2;ratioP2;P2;SDS_P1;SDS_P2;PMS_P1;PMS_P2;Temp;Humidity;BMP_temperature;BMP_pressure;BME280_temperature;BME280_humidity;BME280_pressure;Samples;Min_cycle;Max_cycle;Signal;HPM_P1;HPM_P2
2021/01/04 00:02:25;;;;;;;14.95;11.60;;;;;;;4.62;73.38;101344.20;1692444;82;21295;-44
2021/01/04 00:05:13;;;;;;;19.48;12.35;;;;;;;4.64;73.38;101345.05;1611865;87;21208;-42
2021/01/04 00:08:25;;;;;;;18.85;12.93;;;;;;;4.64;73.38;101347.69;1608639;87;21208;-42
2021/01/04 00:11:10;;;;;;;14.95;11.00;;;;;;;4.62;73.39;101340.23;1606063;87;21196;-50
2021/01/04 00:14:05;;;;;;;19.07;11.70;;;;;;;4.62;73.45;101336.27;1608751;87;21155;-41
2021/01/04 00:18:06;;;;;;;19.73;14.45;;;;;;;4.63;73.44;101331.39;1607411;87;22059;-39
2021/01/04 00:21:39;;;;;;;17.92;12.00;;;;;;;4.61;73.50;101324.41;1607651;87;21655;-40
2021/01/04 00:25:13;;;;;;;12.75;9.55;;;;;;;4.57;73.53;101319.64;1583553;88;21245;-40
2021/01/04 00:28:12;;;;;;;14.40;10.75;;;;;;;4.58;73.61;101312.58;1797974;78;23135;-40
2021/01/04 00:31:08;;;;;;;17.67;11.68;;;;;;;4.53;73.65;101304.29;1756805;79;21228;-44
2021/01/04 00:33:50;;;;;;;14.75;10.03;;;;;;;4.57;73.60;101311.72;1751654;80;21663;-42
2021/01/04 00:36:32;;;;;;;15.80;9.80;;;;;;;4.57;73.58;101314.36;1765620;79;21321;-43
2021/01/04 00:39:31;;;;;;;15.00;10.38;;;;;;;4.55;73.60;101310.42;1739078;79;21164;-42
2021/01/04 00:42:19;;;;;;;13.58;10.85;;;;;;;4.56;73.65;101312.60;1764662;79;21198;-42
2021/01/04 00:45:33;;;;;;;14.43;9.45;;;;;;;4.58;73.70;101315.23;1744110;80;21192;-43
2021/01/04 00:48:41;;;;;;;16.05;10.10;;;;;;;4.60;73.65;101316.07;1761879;80;21196;-43
2021/01/04 00:51:45;;;;;;;17.02;10.18;;;;;;;4.62;73.55;101321.74;1744360;80;21112;-44
2021/01/04 00:54:53;;;;;;;13.95;9.70;;;;;;;4.60;73.61;101324.86;1765242;80;21696;-40
2021/01/04 00:58:10;;;;;;;12.90;9.08;;;;;;;4.61;73.65;101327.94;1755698;80;21690;-43
2021/01/04 01:00:51;;;;;;;11.48;8.38;;;;;;;4.65;73.61;101331.38;1732374;80;21330;-42
2021/01/04 01:04:01;;;;;;;14.23;9.25;;;;;;;4.64;73.65;101337.12;1744528;80;21807;-44
2021/01/04 01:07:02;;;;;;;11.83;8.68;;;;;;;4.67;73.64;101333.55;1744028;80;21168;-44
2021/01/04 01:09:34;;;;;;;12.37;9.23;;;;;;;4.68;73.59;101320.73;1759532;80;21312;-40
2021/01/04 01:12:12;;;;;;;;;;;;;;;4.69;73.57;101322.04;1730685;80;21149;-40
2021/01/04 01:15:19;;;;;;;13.22;9.28;;;;;;;4.68;73.53;101326.89;1754619;80;20569;-40
2021/01/04 01:18:25;;;;;;;14.47;9.68;;;;;;;4.69;73.49;101329.97;1724309;80;21313;-43
2021/01/04 01:20:55;;;;;;;12.68;8.35;;;;;;;4.71;73.71;101325.53;1765851;80;21143;-44
2021/01/04 01:23:25;;;;;;;12.73;8.98;;;;;;;4.75;73.63;101315.75;1749841;80;21173;-43
2021/01/04 01:26:10;;;;;;;13.62;9.53;;;;;;;4.76;73.56;101312.19;1757297;80;21213;-43
2021/01/04 01:29:11;;;;;;;13.18;9.53;;;;;;;4.77;73.53;101324.52;1747542;80;21137;-42
2021/01/04 01:32:25;;;;;;;13.58;9.98;;;;;;;4.77;73.47;101308.66;1756133;80;21175;-43
2021/01/04 01:35:11;;;;;;;14.63;9.83;;;;;;;4.76;73.49;101307.80;1725616;81;21584;-44
2021/01/04 01:38:08;;;;;;;13.32;9.25;;;;;;;4.77;73.38;101313.95;1761377;79;21593;-48
2021/01/04 01:41:08;;;;;;;11.63;8.63;;;;;;;4.74;73.36;101314.88;1761088;80;21280;-45
2021/01/04 01:44:01;;;;;;;12.45;8.90;;;;;;;4.74;73.45;101319.30;1745248;80;21226;-47
2021/01/04 01:46:43;;;;;;;14.58;9.28;;;;;;;4.76;73.47;101322.33;1753029;80;21180;-45
2021/01/04 01:49:38;;;;;;;14.65;10.23;;;;;;;4.78;73.37;101327.56;1750099;80;21283;-47
2021/01/04 01:52:16;;;;;;;14.18;10.60;;;;;;;4.77;73.35;101324.06;1762210;80;21118;-46
2021/01/04 01:55:04;;;;;;;15.20;10.48;;;;;;;4.77;73.35;101321.87;1702207;83;21147;-43
2021/01/04 01:57:46;;;;;;;14.50;10.63;;;;;;;4.76;73.37;101317.47;1698313;83;21162;-43
2021/01/04 02:00:31;;;;;;;12.85;10.08;;;;;;;4.77;73.41;101316.59;1725101;81;21190;-43
2021/01/04 02:03:07;;;;;;;13.05;10.05;;;;;;;4.79;73.37;101312.15;1707869;81;21236;-42
2021/01/04 02:06:14;;;;;;;13.20;9.85;;;;;;;4.82;73.41;101320.00;1714473;81;21161;-43
2021/01/04 02:08:46;;;;;;;15.30;10.28;;;;;;;4.82;73.40;101312.53;1714301;82;21197;-42
2021/01/04 02:11:19;;;;;;;17.92;10.95;;;;;;;4.83;73.46;101307.66;1718487;81;21175;-39
2021/01/04 02:13:59;;;;;;;15.78;11.28;;;;;;;4.84;73.47;101302.34;1706658;81;21300;-43
2021/01/04 02:16:32;;;;;;;15.75;11.25;;;;;;;4.84;73.43;101296.16;1706917;82;21148;-44
2021/01/04 02:19:18;;;;;;;13.75;10.25;;;;;;;4.84;73.49;101302.77;1695546;82;21310;-44
2021/01/04 02:22:22;;;;;;;17.07;10.82;;;;;;;4.86;73.55;101304.48;1684037;82;21775;-42
2021/01/04 02:24:51;;;;;;;14.75;10.45;;;;;;;4.87;73.51;101295.66;1698532;82;21176;-46
2021/01/04 02:27:24;;;;;;;18.10;11.12;;;;;;;4.89;73.47;101301.80;1719270;81;21145;-42
2021/01/04 02:29:53;;;;;;;17.37;11.30;;;;;;;4.88;73.51;101307.09;1694727;83;21186;-41
2021/01/04 02:32:21;;;;;;;14.87;11.03;;;;;;;4.85;73.52;101312.46;1694366;83;21266;-41
2021/01/04 02:34:53;;;;;;;17.05;11.30;;;;;;;4.84;73.49;101315.56;1722116;82;21192;-40
2021/01/04 02:37:22;;;;;;;14.30;10.32;;;;;;;4.87;73.44;101319.45;1703940;81;21157;-41
2021/01/04 02:39:56;;;;;;;17.92;11.15;;;;;;;4.88;73.47;101321.64;1696140;82;21172;-43
2021/01/04 02:42:28;;;;;;;17.05;11.50;;;;;;;4.90;73.43;101325.13;1686650;83;21294;-43
2021/01/04 02:44:58;;;;;;;16.23;11.65;;;;;;;4.90;73.42;101319.84;1723805;81;21177;-43
2021/01/04 02:47:55;;;;;;;19.48;12.68;;;;;;;4.89;73.47;101331.30;1735229;81;21201;-44
2021/01/04 02:50:49;;;;;;;20.32;12.37;;;;;;;4.87;73.53;101326.06;1712441;81;21306;-42
2021/01/04 02:53:38;;;;;;;15.70;10.03;;;;;;;4.88;73.54;101320.31;1719358;81;21398;-45
2021/01/04 02:56:35;;;;;;;15.13;10.45;;;;;;;4.89;73.54;101313.69;1691447;83;21295;-43
2021/01/04 02:59:37;;;;;;;15.35;10.40;;;;;;;4.87;73.58;101318.13;1694559;83;21328;-46
2021/01/04 03:02:19;;;;;;;15.63;10.85;;;;;;;4.86;73.60;101327.41;1675225;83;21177;-43
2021/01/04 03:04:47;;;;;;;19.17;11.50;;;;;;;4.86;73.55;101326.95;1723111;81;21172;-44
2021/01/04 03:07:23;;;;;;;14.73;10.48;;;;;;;4.87;73.58;101326.52;1722126;81;21165;-46
2021/01/04 03:09:53;;;;;;;15.23;11.60;;;;;;;4.88;73.64;101326.47;1725253;81;21146;-45
2021/01/04 03:12:32;;;;;;;14.13;10.32;;;;;;;4.88;73.62;101311.93;1718195;81;21605;-44
2021/01/04 03:15:23;;;;;;;14.47;10.20;;;;;;;4.91;73.54;101317.17;1699847;83;21332;-44
2021/01/04 03:18:09;;;;;;;17.00;11.30;;;;;;;4.94;73.57;101317.55;1716095;81;21591;-42
2021/01/04 03:20:37;;;;;;;15.88;10.60;;;;;;;4.95;73.44;101317.50;1723081;81;21618;-42
2021/01/04 03:23:06;;;;;;;15.38;10.45;;;;;;;4.97;73.44;101317.48;1728253;81;21127;-40
2021/01/04 03:25:56;;;;;;;16.17;10.90;;;;;;;4.97;73.48;101318.80;1704904;81;21156;-45
2021/01/04 03:28:30;;;;;;;13.77;10.67;;;;;;;4.97;73.48;101322.31;1721454;81;21221;-41
2021/01/04 03:31:01;;;;;;;15.78;11.88;;;;;;;4.98;73.46;101320.07;1726945;81;21284;-43
2021/01/04 03:33:30;;;;;;;16.95;10.53;;;;;;;4.99;73.39;101319.19;1725454;81;21336;-41
2021/01/04 03:35:58;;;;;;;17.70;11.78;;;;;;;5.01;73.35;101316.95;1717374;81;21166;-41
2021/01/04 03:38:27;;;;;;;16.60;10.43;;;;;;;5.03;73.31;101315.15;1717025;81;21204;-43
2021/01/04 03:40:55;;;;;;;17.80;10.90;;;;;;;5.06;73.30;101316.39;1711109;81;21185;-43
2021/01/04 03:43:23;;;;;;;15.58;9.83;;;;;;;5.07;73.22;101315.05;1718125;81;21774;-41
2021/01/04 03:45:52;;;;;;;19.15;11.80;;;;;;;5.08;73.19;101314.13;1720710;81;21240;-43
2021/01/04 03:48:20;;;;;;;16.48;12.03;;;;;;;5.10;73.17;101311.47;1698156;80;21705;-38
2021/01/04 03:50:50;;;;;;;16.45;10.38;;;;;;;5.09;73.14;101314.57;1675190;83;21174;-40
2021/01/04 03:53:19;;;;;;;14.38;10.10;;;;;;;5.12;73.08;101310.52;1707229;81;21184;-42
2021/01/04 03:55:47;;;;;;;16.77;10.98;;;;;;;5.12;73.01;101309.20;1699848;82;21184;-51
2021/01/04 03:58:15;;;;;;;16.62;11.33;;;;;;;5.11;72.98;101312.73;1719857;81;21188;-48
2021/01/04 04:00:45;;;;;;;17.80;11.08;;;;;;;5.11;73.00;101314.52;1686761;83;21170;-42
2021/01/04 04:03:14;;;;;;;15.90;11.45;;;;;;;5.12;72.95;101311.84;1681500;83;22292;-43
2021/01/04 04:05:42;;;;;;;16.27;11.40;;;;;;;5.12;72.98;101305.23;1718568;81;21177;-45
2021/01/04 04:08:10;;;;;;;17.17;10.58;;;;;;;5.14;72.96;101302.11;1706379;81;21141;-45
2021/01/04 04:10:39;;;;;;;14.55;9.68;;;;;;;5.17;72.90;101300.71;1717472;81;21766;-43
2021/01/04 04:13:07;;;;;;;19.57;11.00;;;;;;;5.19;72.83;101299.33;1681677;83;21169;-44
2021/01/04 04:15:35;;;;;;;13.15;9.33;;;;;;;5.20;72.99;101297.13;1704198;82;21636;-46
2021/01/04 04:18:04;;;;;;;16.32;10.10;;;;;;;5.25;73.02;101301.85;1692364;82;21171;-39
2021/01/04 04:20:32;;;;;;;16.07;10.15;;;;;;;5.27;72.87;101304.02;1691929;82;21189;-42
2021/01/04 04:23:00;;;;;;;19.07;11.12;;;;;;;5.26;72.73;101302.26;1685506;83;21930;-44
2021/01/04 04:25:28;;;;;;;14.15;8.58;;;;;;;5.23;72.81;101296.19;1695481;82;21314;-40
2021/01/04 04:27:56;;;;;;;11.48;7.97;;;;;;;5.23;72.77;101288.25;1696988;82;21164;-44
2021/01/04 04:30:26;;;;;;;14.93;8.98;;;;;;;5.25;72.71;101295.24;1698571;82;21489;-42
2021/01/04 04:32:56;;;;;;;12.75;8.70;;;;;;;5.24;72.75;101289.55;1728426;81;21193;-41
2021/01/04 04:35:24;;;;;;;12.90;7.90;;;;;;;5.25;72.77;101296.56;1726734;81;21165;-43
2021/01/04 04:37:53;;;;;;;11.68;7.53;;;;;;;5.23;72.74;101290.89;1718999;81;21178;-46
2021/01/04 04:40:31;;;;;;;12.65;8.25;;;;;;;5.22;72.76;101292.67;1710773;81;21159;-42
2021/01/04 04:43:15;;;;;;;11.97;7.45;;;;;;;5.20;72.77;101290.52;1692572;82;21171;-43
2021/01/04 04:45:44;;;;;;;11.45;7.90;;;;;;;5.20;72.85;101295.80;1686130;82;21164;-44
2021/01/04 04:48:55;;;;;;;12.98;7.50;;;;;;;5.19;72.85;101300.66;1694895;82;21173;-43
2021/01/04 04:51:37;;;;;;;10.15;6.85;;;;;;;5.16;72.85;101305.56;1725840;81;21967;-42
2021/01/04 04:54:36;;;;;;;10.15;6.67;;;;;;;5.15;72.78;101297.69;1653814;84;21192;-41
2021/01/04 04:57:27;;;;;;;10.08;7.20;;;;;;;5.11;72.75;101296.88;1699420;83;21358;-46
2021/01/04 05:00:45;;;;;;;10.20;7.25;;;;;;;5.12;72.87;101300.41;1699140;83;21141;-43
2021/01/04 05:04:03;;;;;;;11.15;7.75;;;;;;;5.11;72.91;101293.36;1696842;83;22022;-41
2021/01/04 05:06:45;;;;;;;11.53;7.50;;;;;;;5.11;73.00;101296.00;1688449;83;21181;-41
2021/01/04 05:09:53;;;;;;;10.45;6.97;;;;;;;5.13;73.04;101291.56;1670023;83;21287;-40
2021/01/04 05:12:39;;;;;;;12.03;7.12;;;;;;;5.13;73.08;101284.95;1687982;83;21197;-42
2021/01/04 05:15:15;;;;;;;9.25;6.60;;;;;;;5.13;73.08;101281.84;1698380;83;21134;-40
2021/01/04 05:18:14;;;;;;;9.95;7.00;;;;;;;5.13;73.20;101284.95;1692965;82;21326;-41
2021/01/04 05:21:06;;;;;;;11.25;7.28;;;;;;;5.13;73.32;101292.88;1661649;83;21323;-45
2021/01/04 05:24:32;;;;;;;9.40;6.85;;;;;;;5.13;73.42;101290.23;1692068;83;21736;-42
2021/01/04 05:27:41;;;;;;;7.97;5.53;;;;;;;5.12;73.46;101285.41;1693369;83;21311;-45
2021/01/04 05:30:26;;;;;;;11.22;6.05;;;;;;;5.14;73.52;101286.67;1717177;82;21305;-45
2021/01/04 05:33:32;;;;;;;8.80;6.00;;;;;;;5.10;73.45;101292.95;1721110;81;21168;-42
2021/01/04 05:36:09;;;;;;;9.25;5.92;;;;;;;5.10;73.57;101282.38;1680214;84;21479;-43
2021/01/04 05:39:07;;;;;;;8.93;6.28;;;;;;;5.10;73.57;101287.21;1705040;82;21151;-44
2021/01/04 05:42:09;;;;;;;9.55;7.17;;;;;;;5.09;73.66;101276.23;1682467;83;21152;-43
2021/01/04 05:44:51;;;;;;;8.78;6.42;;;;;;;5.09;73.74;101285.91;1593328;88;21195;-40
2021/01/04 05:47:25;;;;;;;10.38;6.90;;;;;;;5.10;73.79;101285.03;1585412;88;21236;-43
2021/01/04 05:50:06;;;;;;;9.00;6.55;;;;;;;5.10;73.79;101281.92;1589009;88;21214;-41
2021/01/04 05:52:39;;;;;;;13.50;10.13;;;;;;;5.13;73.83;101281.84;1787798;77;32148;-38
2021/01/04 05:55:08;;;;;;;9.53;7.50;;;;;;;5.14;73.90;101285.35;1784322;78;21282;-41
2021/01/04 05:57:51;;;;;;;10.45;7.50;;;;;;;5.26;73.79;101282.42;1755551;80;21659;-41
2021/01/04 06:00:29;;;;;;;10.48;6.45;;;;;;;5.26;73.70;101286.39;1785253;78;21509;-42
2021/01/04 06:03:17;;;;;;;9.10;6.25;;;;;;;5.22;73.76;101287.39;1788295;79;21104;-47
2021/01/04 06:05:47;;;;;;;9.28;7.25;;;;;;;5.21;73.71;101282.53;1784768;78;21125;-45
2021/01/04 06:08:27;;;;;;;8.55;6.45;;;;;;;5.21;73.67;101280.34;1787068;78;21106;-40
2021/01/04 06:11:08;;;;;;;10.40;7.65;;;;;;;5.21;73.72;101287.81;1786561;78;21136;-43
2021/01/04 06:13:47;;;;;;;9.73;7.22;;;;;;;5.19;73.74;101290.08;1787255;78;21278;-40
2021/01/04 06:16:19;;;;;;;10.32;7.28;;;;;;;5.18;73.80;101300.25;1782704;78;21279;-43
2021/01/04 06:18:51;;;;;;;10.98;7.55;;;;;;;5.18;73.86;101301.58;1783417;78;21153;-41
2021/01/04 06:21:45;;;;;;;11.20;7.65;;;;;;;5.17;73.83;101305.14;1787988;78;21137;-43
2021/01/04 06:24:23;;;;;;;13.00;8.83;;;;;;;5.16;73.87;101305.56;1784399;78;21105;-44
2021/01/04 06:26:53;;;;;;;11.18;8.13;;;;;;;5.16;73.69;101312.63;1785795;78;21077;-44
2021/01/04 06:29:40;;;;;;;11.87;8.57;;;;;;;5.14;73.67;101314.44;1786984;78;21129;-44
2021/01/04 06:32:25;;;;;;;11.97;9.70;;;;;;;5.13;73.72;101310.93;1780620;78;21569;-43
2021/01/04 06:35:00;;;;;;;15.15;9.63;;;;;;;5.13;73.71;101307.42;1784030;79;21544;-41
2021/01/04 06:37:29;;;;;;;11.93;9.40;;;;;;;5.11;73.75;101302.16;1767781;79;21727;-42
2021/01/04 06:40:23;;;;;;;15.23;9.03;;;;;;;5.10;73.86;101307.05;1747250;80;21137;-44
2021/01/04 06:42:51;;;;;;;15.03;8.93;;;;;;;5.11;73.81;101310.09;1726405;80;21984;-42
2021/01/04 06:45:36;;;;;;;11.35;9.10;;;;;;;5.13;73.79;101310.06;1712977;80;21526;-44
2021/01/04 06:48:26;;;;;;;14.15;8.90;;;;;;;5.12;73.81;101307.88;1743283;80;21153;-43
2021/01/04 06:51:26;;;;;;;12.55;8.98;;;;;;;5.10;73.89;101314.97;1710088;81;21154;-43
2021/01/04 06:54:39;;;;;;;15.18;10.70;;;;;;;5.11;73.94;101329.06;1677456;83;21202;-44
2021/01/04 06:57:48;;;;;;;13.72;9.30;;;;;;;5.11;73.87;101324.63;1676330;83;21656;-44
2021/01/04 07:00:21;;;;;;;11.35;8.18;;;;;;;5.10;73.93;101320.72;1671499;83;21462;-43
2021/01/04 07:03:23;;;;;;;15.58;10.43;;;;;;;5.12;73.99;101317.14;1680934;83;21121;-44
2021/01/04 07:06:25;;;;;;;15.08;10.23;;;;;;;5.16;73.98;101323.21;1678103;84;21172;-43
2021/01/04 07:09:18;;;;;;;13.08;10.53;;;;;;;5.16;73.88;101323.21;1678259;83;21145;-42
2021/01/04 07:12:01;;;;;;;15.38;10.03;;;;;;;5.16;73.92;101304.70;1685328;83;21152;-45
2021/01/04 07:14:56;;;;;;;12.85;9.48;;;;;;;5.17;74.07;101311.75;1681625;83;21161;-45
2021/01/04 07:17:49;;;;;;;13.65;9.80;;;;;;;5.17;74.08;101315.72;1686181;83;21173;-47
2021/01/04 07:20:37;;;;;;;13.75;10.55;;;;;;;5.23;74.16;101317.34;1798723;77;23000;-42
2021/01/04 07:23:42;;;;;;;14.83;10.58;;;;;;;5.21;74.22;101314.26;1717615;81;21657;-43
2021/01/04 07:26:43;;;;;;;16.48;11.25;;;;;;;5.25;74.31;101324.80;1721663;81;21119;-45
2021/01/04 07:29:34;;;;;;;14.47;10.45;;;;;;;5.26;74.28;101322.09;1720251;81;21505;-42
2021/01/04 07:32:08;;;;;;;15.35;10.58;;;;;;;5.29;74.36;101323.80;1725515;81;21148;-41
2021/01/04 07:34:44;;;;;;;17.05;12.23;;;;;;;5.32;74.73;101321.11;1720899;81;21128;-43
2021/01/04 07:37:43;;;;;;;14.18;9.73;;;;;;;5.38;74.75;101328.88;1623108;86;21255;-42
2021/01/04 07:40:45;;;;;;;16.07;10.60;;;;;;;5.45;74.79;101318.58;1612762;87;21217;-43
2021/01/04 07:43:55;;;;;;;17.82;12.60;;;;;;;5.48;74.65;101307.91;1614334;87;21636;-45
2021/01/04 07:46:55;;;;;;;12.65;9.73;;;;;;;5.50;74.58;101305.24;1617063;87;21298;-40
2021/01/04 07:49:53;;;;;;;15.90;10.93;;;;;;;5.51;74.42;101306.52;1667572;84;21478;-45
2021/01/04 07:53:16;;;;;;;15.93;11.33;;;;;;;5.49;74.29;101314.93;1666774;84;21307;-41
2021/01/04 07:56:22;;;;;;;15.78;11.75;;;;;;;5.50;74.22;101309.21;1662580;84;21571;-42
2021/01/04 07:59:42;;;;;;;15.10;11.45;;;;;;;5.52;74.38;101312.23;1665683;84;21325;-48
2021/01/04 08:03:11;;;;;;;14.47;11.18;;;;;;;5.61;74.57;101313.77;1790836;78;23512;-45
2021/01/04 08:06:05;;;;;;;16.23;11.28;;;;;;;5.63;74.43;101311.97;1770743;79;21176;-44
2021/01/04 08:08:49;;;;;;;21.12;11.88;;;;;;;5.69;74.17;101314.91;1698244;82;21164;-47
2021/01/04 08:11:58;;;;;;;19.12;13.38;;;;;;;5.69;74.04;101317.09;1669422;84;21191;-43
2021/01/04 08:14:48;;;;;;;20.32;13.32;;;;;;;5.70;73.93;101314.87;1693506;82;21276;-46
2021/01/04 08:17:27;;;;;;;19.82;13.60;;;;;;;5.69;73.90;101313.58;1674521;83;21187;-47
2021/01/04 08:19:57;;;;;;;17.82;13.93;;;;;;;5.66;73.86;101311.87;1688508;82;21149;-44
2021/01/04 08:23:12;;;;;;;17.32;13.10;;;;;;;5.66;73.70;101314.98;1681043;82;21515;-44
2021/01/04 08:26:26;;;;;;;20.32;12.70;;;;;;;5.64;73.72;101311.05;1662748;83;21257;-44
2021/01/04 08:29:54;;;;;;;18.67;13.72;;;;;;;5.61;73.81;101315.09;1677419;83;21664;-45
2021/01/04 08:33:49;;;;;;;18.55;13.48;;;;;;;5.68;74.07;101311.86;1799767;78;23051;-44
2021/01/04 08:36:25;;;;;;;19.42;14.00;;;;;;;5.64;74.03;101317.23;1763950;79;21641;-45
2021/01/04 08:39:07;;;;;;;18.37;14.13;;;;;;;5.64;73.93;101317.23;1766854;79;21161;-44
2021/01/04 08:41:35;;;;;;;20.05;14.18;;;;;;;5.65;73.91;101312.80;1770921;78;21177;-49
2021/01/04 08:44:18;;;;;;;21.97;14.50;;;;;;;5.65;73.98;101310.16;1773620;79;21118;-44
2021/01/04 08:46:47;;;;;;;18.50;13.78;;;;;;;5.66;73.96;101310.56;1776756;79;21148;-42
2021/01/04 08:49:26;;;;;;;21.93;15.28;;;;;;;5.69;74.06;101314.44;1777921;79;21752;-41
2021/01/04 08:51:54;;;;;;;19.65;13.48;;;;;;;5.72;73.96;101316.14;1771792;78;21172;-44
2021/01/04 08:54:29;;;;;;;20.17;14.28;;;;;;;5.71;73.93;101312.63;1769384;78;21152;-42
2021/01/04 08:57:17;;;;;;;20.10;13.93;;;;;;;5.73;73.98;101302.88;1774365;78;21154;-44
2021/01/04 09:00:01;;;;;;;17.80;13.45;;;;;;;5.77;73.94;101302.34;1760417;78;21600;-44
2021/01/04 09:02:37;;;;;;;22.62;15.25;;;;;;;5.81;73.85;101306.20;1780968;79;21525;-45
2021/01/04 09:05:08;;;;;;;25.57;15.32;;;;;;;5.85;73.95;101306.55;1777898;78;21751;-44
2021/01/04 09:07:52;;;;;;;24.33;14.63;;;;;;;5.88;73.83;101304.73;1774529;78;21135;-44
2021/01/04 09:10:23;;;;;;;22.32;14.47;;;;;;;5.90;73.82;101311.72;1772794;78;21871;-44
2021/01/04 09:12:54;;;;;;;18.40;12.78;;;;;;;5.92;73.61;101312.98;1690931;82;21163;-45
2021/01/04 09:15:51;;;;;;;18.75;13.48;;;;;;;5.95;73.53;101305.89;1790558;78;22980;-40
2021/01/04 09:18:41;;;;;;;20.20;13.30;;;;;;;5.92;73.43;101305.05;1738842;79;21573;-42
2021/01/04 09:21:33;;;;;;;19.50;13.93;;;;;;;5.91;73.28;101305.97;1754883;79;21597;-39
2021/01/04 09:24:27;;;;;;;19.98;13.90;;;;;;;5.91;73.29;101297.56;1769016;79;21125;-43
2021/01/04 09:26:58;;;;;;;20.37;13.38;;;;;;;5.93;73.31;101305.48;1771822;79;21163;-43
2021/01/04 09:29:30;;;;;;;16.82;12.23;;;;;;;5.95;73.37;101314.29;1706214;81;21703;-42
2021/01/04 09:32:15;;;;;;;16.82;12.98;;;;;;;5.95;73.21;101306.34;1717539;81;21168;-41
2021/01/04 09:36:04;;;;;;;20.92;13.65;;;;;;;5.94;73.19;101305.45;1615102;86;21198;-42
2021/01/04 09:39:05;;;;;;;19.92;13.45;;;;;;;5.99;73.19;101296.93;1798361;78;23108;-45
2021/01/04 09:41:33;;;;;;;20.25;14.33;;;;;;;5.97;73.24;101300.10;1779459;78;22144;-45
2021/01/04 09:44:07;;;;;;;19.15;13.22;;;;;;;6.00;73.30;101293.86;1776394;78;21148;-46
2021/01/04 09:46:48;;;;;;;17.57;12.65;;;;;;;6.01;73.36;101285.84;1781924;79;21144;-44
2021/01/04 09:49:32;;;;;;;20.23;13.68;;;;;;;6.01;73.39;101289.83;1778758;79;21691;-46
2021/01/04 09:52:08;;;;;;;21.52;14.00;;;;;;;6.02;73.47;101286.71;1778596;79;21137;-47
2021/01/04 09:54:46;;;;;;;18.75;14.75;;;;;;;6.04;73.44;101289.73;1708662;81;21359;-45
2021/01/04 09:57:20;;;;;;;20.00;13.38;;;;;;;6.04;73.45;101288.41;1703665;82;21377;-46
2021/01/04 10:00:23;;;;;;;19.10;13.48;;;;;;;6.09;73.46;101286.10;1794622;78;22959;-45
2021/01/04 10:03:05;;;;;;;20.35;13.75;;;;;;;6.06;73.27;101283.08;1764617;79;21167;-45
2021/01/04 10:05:36;;;;;;;20.68;13.35;;;;;;;6.05;73.26;101280.90;1777480;79;21421;-44
2021/01/04 10:08:17;;;;;;;17.92;12.82;;;;;;;6.04;73.30;101271.66;1765090;79;21161;-43
2021/01/04 10:11:05;;;;;;;21.00;14.20;;;;;;;6.01;73.18;101279.23;1760267;79;21137;-44
2021/01/04 10:13:37;;;;;;;21.73;15.20;;;;;;;6.03;73.15;101279.20;1722062;82;21612;-51
2021/01/04 10:16:13;;;;;;;21.55;15.05;;;;;;;6.02;72.92;101278.77;1719016;81;21157;-44
2021/01/04 10:18:49;;;;;;;19.67;15.08;;;;;;;5.97;72.74;101280.25;1711866;81;21164;-46
2021/01/04 10:21:22;;;;;;;19.37;14.38;;;;;;;5.95;72.88;101286.03;1741939;81;21515;-44
2021/01/04 10:23:54;;;;;;;20.48;14.18;;;;;;;5.94;72.77;101283.41;1719744;81;21197;-44
2021/01/04 10:26:24;;;;;;;18.52;14.05;;;;;;;5.92;72.73;101276.81;1710989;81;21148;-43
2021/01/04 10:28:52;;;;;;;18.42;14.10;;;;;;;5.92;72.71;101269.30;1706687;82;21139;-44
2021/01/04 10:31:25;;;;;;;27.32;16.27;;;;;;;5.93;72.68;101271.92;1710068;82;21473;-49
2021/01/04 10:34:04;;;;;;;22.10;15.55;;;;;;;5.92;72.63;101272.84;1707755;82;21181;-48
2021/01/04 10:36:32;;;;;;;20.60;15.23;;;;;;;5.91;72.50;101262.28;1708085;82;21328;-49
2021/01/04 10:39:04;;;;;;;24.45;15.65;;;;;;;5.91;72.60;101268.44;1684084;82;21567;-47
2021/01/04 10:41:33;;;;;;;24.75;15.13;;;;;;;5.93;72.67;101275.89;1712657;82;21190;-47
2021/01/04 10:44:26;;;;;;;24.18;16.37;;;;;;;5.95;72.75;101278.09;1713301;82;21154;-50
2021/01/04 10:47:13;;;;;;;24.67;15.43;;;;;;;5.96;72.77;101277.63;1708163;82;21197;-46
2021/01/04 10:49:40;;;;;;;19.05;15.05;;;;;;;5.98;72.79;101270.52;1721743;81;21589;-49
2021/01/04 10:52:21;;;;;;;21.77;15.98;;;;;;;6.01;72.75;101282.34;1711410;82;21810;-42
2021/01/04 10:54:49;;;;;;;22.60;14.93;;;;;;;6.04;72.68;101282.25;1713572;82;21163;-44
2021/01/04 10:57:26;;;;;;;21.70;16.05;;;;;;;6.05;72.61;101284.01;1743659;80;21165;-43
2021/01/04 11:00:01;;;;;;;20.37;12.37;;;;;;;6.06;72.56;101278.65;1720005;81;21651;-45
2021/01/04 11:02:42;;;;;;;20.82;14.03;;;;;;;6.07;72.48;101280.84;1742468;81;21163;-44
2021/01/04 11:05:12;;;;;;;17.27;13.75;;;;;;;6.07;72.00;101283.48;1722124;80;21227;-44
2021/01/04 11:07:40;;;;;;;18.65;12.90;;;;;;;6.04;71.78;101278.28;1735970;81;21181;-44
2021/01/04 11:10:27;;;;;;;19.27;14.00;;;;;;;6.00;71.71;101279.30;1747592;80;22105;-43
2021/01/04 11:12:57;;;;;;;19.77;13.70;;;;;;;5.97;71.69;101280.67;1751158;80;21215;-45
2021/01/04 11:15:27;;;;;;;15.98;12.15;;;;;;;5.95;71.72;101283.38;1712223;81;21574;-46
2021/01/04 11:18:09;;;;;;;19.00;13.23;;;;;;;5.95;71.79;101281.20;1717272;81;21169;-45
2021/01/04 11:20:39;;;;;;;21.37;14.00;;;;;;;5.96;71.92;101281.14;1737182;81;21180;-44
2021/01/04 11:23:13;;;;;;;19.95;13.25;;;;;;;5.99;71.97;101275.75;1712861;81;21692;-44
2021/01/04 11:28:39;;;;;;;20.57;13.53;;;;;;;6.09;72.02;101269.75;1797781;78;23093;-43
2021/01/04 11:31:07;;;;;;;18.85;13.83;;;;;;;6.08;71.98;101275.97;1744498;80;21193;-45
2021/01/04 11:33:35;;;;;;;20.35;13.72;;;;;;;6.08;71.89;101272.00;1737385;81;21165;-45
2021/01/04 11:36:03;;;;;;;21.48;15.28;;;;;;;6.10;71.93;101276.80;1734164;81;21156;-45
2021/01/04 11:38:31;;;;;;;20.82;13.88;;;;;;;6.12;71.82;101268.80;1701154;81;21186;-46
2021/01/04 11:40:59;;;;;;;19.10;13.78;;;;;;;6.13;71.68;101264.80;1712574;81;21545;-46
2021/01/04 11:43:26;;;;;;;20.30;13.48;;;;;;;6.12;71.57;101265.69;1732300;81;21687;-46
2021/01/04 11:45:54;;;;;;;20.55;14.23;;;;;;;6.12;71.65;101264.36;1731065;80;21190;-51
2021/01/04 11:48:24;;;;;;;23.75;16.80;;;;;;;6.15;71.87;101259.44;1737325;80;21154;-49
2021/01/04 11:50:51;;;;;;;22.40;14.45;;;;;;;6.18;71.88;101262.03;1737980;80;21611;-48
2021/01/04 11:53:19;;;;;;;23.70;16.10;;;;;;;6.20;72.12;101260.17;1732034;80;21156;-46
2021/01/04 11:55:47;;;;;;;23.73;15.85;;;;;;;6.23;72.14;101260.98;1723429;81;21733;-44
2021/01/04 11:58:15;;;;;;;22.17;15.05;;;;;;;6.26;72.17;101253.40;1705399;82;21199;-49
2021/01/04 12:00:42;;;;;;;24.12;16.32;;;;;;;6.28;72.11;101254.23;1730570;80;21908;-49
2021/01/04 12:18:18;;;;;;;21.37;15.35;;;;;;;6.32;71.82;101283.67;1843347;75;23031;-42
2021/01/04 12:20:47;;;;;;;22.15;16.55;;;;;;;6.27;71.83;101280.29;1856348;75;21142;-41
2021/01/04 12:23:15;;;;;;;23.18;16.27;;;;;;;6.25;71.82;101276.38;1856269;75;21164;-53
2021/01/04 12:25:43;;;;;;;28.50;18.98;;;;;;;6.27;71.76;101280.29;1854421;75;22007;-45
2021/01/04 12:28:11;;;;;;;27.00;17.37;;;;;;;6.28;71.79;101286.02;1853780;75;21141;-44
2021/01/04 12:30:38;;;;;;;28.73;18.87;;;;;;;6.30;71.70;101289.50;1854958;75;21106;-44
2021/01/04 12:33:06;;;;;;;31.25;19.50;;;;;;;6.32;71.65;101293.41;1854019;75;21122;-43
2021/01/04 12:35:34;;;;;;;30.52;19.95;;;;;;;6.32;71.48;101290.30;1857147;75;21893;-40
2021/01/04 12:38:02;;;;;;;34.45;20.85;;;;;;;6.33;71.54;101292.52;1844998;75;21673;-40
2021/01/04 12:40:31;;;;;;;34.55;22.37;;;;;;;6.34;71.69;101289.81;1844112;76;21358;-40
2021/01/04 12:43:01;;;;;;;32.00;20.43;;;;;;;6.37;71.57;101299.45;1841325;76;21129;-44
2021/01/04 12:45:30;;;;;;;27.30;17.62;;;;;;;6.37;71.71;101294.15;1840506;76;21208;-42
2021/01/04 12:47:57;;;;;;;31.00;18.30;;;;;;;6.38;71.69;101293.26;1842695;76;21141;-40
2021/01/04 12:50:25;;;;;;;31.00;20.48;;;;;;;6.41;71.74;101297.14;1805596;77;21133;-39
2021/01/04 12:52:54;;;;;;;33.15;20.35;;;;;;;6.42;71.88;101307.67;1758088;79;21128;-39